Time;durP1;ratioP1;P1;durP2;ratioP2;P2;SDS_P1;SDS_P2;PMS_P1;PMS_P2;Temp;Humidity;BMP_temperature;BMP_pressure;BME280_temperature;BME280_humidity;BME280_pressure;Samples;Min_cycle;Max_cycle;Signal;HPM_P1;HPM_P2
2022/02/21 00:00:53;;;;;;;;;3.50;1.00;;;;;10.77;80.40;100201.63;5076743;28;45883;-82
2022/02/21 00:03:22;;;;;;;;;6.00;1.25;;;;;10.81;81.70;100218.75;5076713;28;46649;-82
2022/02/21 00:05:53;;;;;;;;;1.75;1.00;;;;;10.75;82.03;100206.97;5076638;28;46393;-82
2022/02/21 00:08:18;;;;;;;;;3.00;1.00;;;;;10.93;81.71;100250.09;5076809;28;45721;-84
2022/02/21 00:10:44;;;;;;;;;1.50;0.00;;;;;10.65;74.78;100228.78;5077333;28;45566;-81
2022/02/21 00:16:31;;;;;;;;;2.25;1.00;;;;;10.76;73.34;100242.72;5076459;28;46106;-85
2022/02/21 00:18:58;;;;;;;;;5.00;1.00;;;;;10.81;75.44;100300.84;5075918;28;45687;-80
2022/02/21 00:21:23;;;;;;;;;2.25;1.00;;;;;10.76;73.86;100284.63;5076536;28;45728;-81
2022/02/21 00:23:49;;;;;;;;;4.00;1.00;;;;;10.73;72.82;100331.22;5077288;28;45494;-81
2022/02/21 00:26:15;;;;;;;;;1.50;0.75;;;;;10.47;75.30;100348.91;5080585;28;46381;-82
2022/02/21 00:28:41;;;;;;;;;1.25;0.25;;;;;10.54;70.80;100295.09;5080508;28;45546;-82
2022/02/21 00:31:07;;;;;;;;;2.75;2.00;;;;;10.48;71.31;100296.38;5080750;28;45614;-85
2022/02/21 00:33:33;;;;;;;;;1.25;1.00;;;;;10.58;75.21;100327.94;5080160;28;45548;-88
2022/02/21 00:35:58;;;;;;;;;1.00;0.00;;;;;10.53;70.86;100301.28;5081050;28;46158;-81
2022/02/21 00:38:23;;;;;;;;;2.00;1.00;;;;;10.48;73.86;100327.81;5080676;28;45561;-82
2022/02/21 00:40:50;;;;;;;;;1.25;0.00;;;;;10.45;74.30;100322.81;5080690;28;45671;-80
2022/02/21 00:46:37;;;;;;;;;7.25;1.00;;;;;10.34;73.67;100307.06;5078215;28;45585;-81
2022/02/21 00:49:05;;;;;;;;;2.00;2.00;;;;;10.29;72.74;100324.91;5078377;28;45625;-82
2022/02/21 00:51:30;;;;;;;;;2.00;1.00;;;;;10.30;70.21;100316.13;5060092;28;45702;-78
2022/02/21 00:53:55;;;;;;;;;2.00;1.00;;;;;10.24;71.17;100315.72;5077993;28;46701;-81
2022/02/21 00:56:21;;;;;;;;;2.00;1.75;;;;;10.23;73.10;100348.09;5078324;28;45712;-81
2022/02/21 00:58:46;;;;;;;;;1.75;1.00;;;;;10.32;69.16;100336.94;5078618;28;45942;-80
2022/02/21 01:01:12;;;;;;;;;1.25;0.00;;;;;10.28;68.95;100357.28;5078512;28;45439;-79
2022/02/21 01:03:38;;;;;;;;;1.75;1.50;;;;;10.29;69.43;100377.28;5079833;28;46475;-87
2022/02/21 01:06:03;;;;;;;;;2.00;0.00;;;;;10.22;79.45;100449.34;5080157;28;45500;-79
2022/02/21 01:08:30;;;;;;;;;0.75;0.00;;;;;9.71;80.67;100469.56;5083662;28;45545;-80
2022/02/21 01:10:55;;;;;;;;;1.00;0.00;;;;;9.09;81.44;100445.94;5080486;28;45460;-84
2022/02/21 01:16:42;;;;;;;;;1.00;1.00;;;;;8.12;84.05;100444.50;5078243;28;45742;-80
2022/02/21 01:19:08;;;;;;;;;0.00;0.00;;;;;7.82;84.95;100404.72;5059979;28;45630;-81
2022/02/21 01:21:33;;;;;;;;;0.00;0.00;;;;;7.54;85.16;100408.22;5077942;28;45500;-81
2022/02/21 01:23:59;;;;;;;;;1.00;0.00;;;;;7.44;85.70;100412.31;5077572;28;46183;-81
2022/02/21 01:26:25;;;;;;;;;0.00;0.00;;;;;7.13;86.06;100390.69;5077622;28;45833;-79
2022/02/21 01:32:12;;;;;;;;;0.75;0.00;;;;;7.02;87.36;100415.72;5077640;28;45612;-84
2022/02/21 01:34:37;;;;;;;;;0.50;0.00;;;;;6.74;87.84;100382.69;5077248;28;46179;-82
2022/02/21 01:37:03;;;;;;;;;1.00;0.25;;;;;7.00;88.21;100431.47;5077195;28;45550;-81
2022/02/21 01:39:29;;;;;;;;;0.00;0.00;;;;;6.89;88.70;100438.22;5078015;28;45432;-84
2022/02/21 01:41:54;;;;;;;;;0.00;0.00;;;;;6.76;88.64;100414.66;5079124;28;45601;-83
2022/02/21 01:44:19;;;;;;;;;0.25;0.00;;;;;6.96;89.19;100443.00;5077512;28;45581;-83
2022/02/21 01:46:45;;;;;;;;;0.00;0.00;;;;;6.92;89.29;100475.31;5076808;28;45631;-83
2022/02/21 01:49:12;;;;;;;;;1.00;0.25;;;;;6.99;89.73;100544.38;5077092;28;45709;-80
2022/02/21 01:51:38;;;;;;;;;1.25;1.00;;;;;6.94;90.34;100455.25;5077708;28;45821;-83
2022/02/21 01:54:09;;;;;;;;;0.75;0.00;;;;;6.93;90.63;100447.50;5076835;28;45613;-83
2022/02/21 01:56:36;;;;;;;;;4.00;1.00;;;;;6.92;91.02;100445.84;5076440;28;45965;-80
2022/02/21 02:02:23;;;;;;;;;1.00;0.00;;;;;6.77;90.90;100452.78;5076894;28;45629;-80
2022/02/21 02:04:49;;;;;;;;;4.00;1.50;;;;;6.67;91.60;100434.25;5075767;28;45577;-80
2022/02/21 02:07:15;;;;;;;;;0.25;0.00;;;;;6.64;91.28;100433.63;5076625;28;46079;-80
2022/02/21 02:09:40;;;;;;;;;1.00;0.25;;;;;6.60;91.43;100427.72;5076406;28;45622;-80
2022/02/21 02:12:10;;;;;;;;;1.50;0.50;;;;;6.62;91.90;100438.91;5076852;28;45732;-82
2022/02/21 02:14:41;;;;;;;;;3.00;1.00;;;;;6.65;92.20;100430.06;5076568;28;46817;-83
2022/02/21 02:17:11;;;;;;;;;0.00;0.00;;;;;6.64;92.41;100431.00;5076815;28;45927;-81
2022/02/21 02:19:37;;;;;;;;;2.00;0.00;;;;;6.66;92.57;100414.34;5076211;28;45681;-77
2022/02/21 02:22:18;;;;;;;;;0.50;0.25;;;;;6.69;92.63;100414.16;5076625;28;45693;-79
2022/02/21 02:24:47;;;;;;;;;1.00;0.00;;;;;6.67;92.83;100403.03;5057926;28;47745;-83
2022/02/21 02:27:14;;;;;;;;;4.50;1.50;;;;;6.65;92.74;100404.03;5076173;28;46142;-84
2022/02/21 02:29:42;;;;;;;;;3.00;1.00;;;;;6.58;92.63;100389.72;5076333;28;45862;-84
2022/02/21 02:32:09;;;;;;;;;2.00;1.00;;;;;6.73;92.58;100410.47;5076347;28;45555;-79
2022/02/21 02:34:37;;;;;;;;;1.00;1.00;;;;;6.72;93.22;100402.75;5076169;28;45603;-80
2022/02/21 02:37:03;;;;;;;;;3.50;2.00;;;;;6.72;93.06;100394.94;5075982;28;45640;-82
2022/02/21 02:39:29;;;;;;;;;1.50;0.00;;;;;6.86;93.48;100420.16;5076599;28;45617;-78
2022/02/21 02:41:54;;;;;;;;;1.75;1.00;;;;;6.86;93.30;100418.38;5057946;28;45555;-80
2022/02/21 02:47:41;;;;;;;;;2.00;1.00;;;;;6.84;93.41;100406.41;5078257;28;45845;-76
2022/02/21 02:50:07;;;;;;;;;1.00;0.75;;;;;6.81;93.66;100397.00;5076119;28;45731;-77
2022/02/21 02:52:33;;;;;;;;;5.00;1.50;;;;;6.94;93.94;100418.78;5075459;28;45723;-81
2022/02/21 02:54:58;;;;;;;;;1.25;0.00;;;;;6.88;93.89;100402.69;5075049;28;47487;-78
2022/02/21 02:57:25;;;;;;;;;5.00;0.50;;;;;6.91;93.21;100399.91;5075253;28;45607;-80
2022/02/21 02:59:50;;;;;;;;;0.00;0.00;;;;;6.72;92.75;100392.34;5075404;28;45872;-82
2022/02/21 03:02:16;;;;;;;;;4.00;1.00;;;;;6.98;92.38;100435.91;5076089;28;45605;-78
2022/02/21 03:04:41;;;;;;;;;8.75;4.50;;;;;6.91;92.07;100429.38;5075382;28;46706;-78
2022/02/21 03:07:06;;;;;;;;;2.00;2.00;;;;;6.97;91.58;100441.19;5075452;28;45592;-77
2022/02/21 03:09:32;;;;;;;;;5.75;2.50;;;;;6.79;91.91;100385.00;5075355;28;45663;-77
2022/02/21 03:11:58;;;;;;;;;5.50;2.00;;;;;7.07;92.92;100422.31;5075326;28;45717;-80
2022/02/21 03:17:46;;;;;;;;;3.00;2.00;;;;;7.16;91.58;100411.38;5074832;28;46172;-80
2022/02/21 03:20:11;;;;;;;;;3.25;1.75;;;;;7.15;90.80;100407.09;5056886;28;45818;-78
2022/02/21 03:22:36;;;;;;;;;1.25;1.00;;;;;7.07;90.71;100396.28;5075409;28;45515;-78
2022/02/21 03:25:03;;;;;;;;;3.25;1.00;;;;;7.25;90.63;100433.41;5075104;28;46749;-79
2022/02/21 03:27:28;;;;;;;;;5.75;4.50;;;;;7.25;90.52;100453.41;5074860;28;46258;-80
2022/02/21 03:29:53;;;;;;;;;1.75;1.00;;;;;7.16;90.48;100402.72;5075222;28;45616;-78
2022/02/21 03:32:19;;;;;;;;;5.25;1.00;;;;;7.19;90.04;100433.78;5075876;28;45605;-80
2022/02/21 03:34:44;;;;;;;;;2.75;1.00;;;;;7.26;90.04;100449.91;5075650;28;46837;-84
2022/02/21 03:37:10;;;;;;;;;1.50;0.25;;;;;7.12;89.93;100409.91;5074826;28;46124;-85
2022/02/21 03:39:35;;;;;;;;;1.50;0.00;;;;;7.25;89.92;100420.41;5057066;28;45696;-85
2022/02/21 03:42:00;;;;;;;;;1.75;1.00;;;;;6.98;89.97;100383.81;5076270;28;45572;-84
2022/02/21 03:47:49;;;;;;;;;1.50;1.50;;;;;7.28;89.25;100467.13;5074530;28;45783;-85
2022/02/21 03:50:16;;;;;;;;;2.00;0.25;;;;;7.28;89.57;100427.19;5057082;28;45802;-81
2022/02/21 03:52:42;;;;;;;;;0.00;0.00;;;;;7.11;89.25;100400.41;5075497;28;45615;-83
2022/02/21 03:55:08;;;;;;;;;0.75;0.00;;;;;7.33;89.56;100417.34;5075035;28;45636;-82
2022/02/21 03:57:34;;;;;;;;;2.25;2.00;;;;;7.34;89.47;100419.81;5074608;28;45696;-84
2022/02/21 03:59:59;;;;;;;;;5.50;1.50;;;;;7.36;89.29;100436.22;5074424;28;45603;-83
2022/02/21 04:02:24;;;;;;;;;2.00;1.00;;;;;7.38;88.99;100456.97;5074870;28;45630;-81
2022/02/21 04:04:50;;;;;;;;;1.25;1.00;;;;;7.40;89.08;100440.31;5074701;28;45566;-83
2022/02/21 04:07:15;;;;;;;;;5.00;0.25;;;;;7.43;89.13;100465.34;5074217;28;45982;-83
2022/02/21 04:09:41;;;;;;;;;1.00;0.00;;;;;7.45;89.31;100440.88;5056023;28;45670;-84
2022/02/21 04:12:07;;;;;;;;;2.00;0.00;;;;;7.46;88.65;100463.41;5074999;28;45522;-83
2022/02/21 04:17:54;;;;;;;;;1.25;0.75;;;;;7.49;88.98;100450.19;5074258;28;46050;-83
2022/02/21 04:20:22;;;;;;;;;2.00;0.00;;;;;7.48;88.70;100427.66;5074873;28;45575;-80
2022/02/21 04:22:48;;;;;;;;;1.00;0.00;;;;;7.54;89.06;100444.69;5075728;28;45582;-83
2022/02/21 04:25:14;;;;;;;;;3.00;0.75;;;;;7.46;88.82;100446.91;5074519;28;45596;-81
2022/02/21 04:27:42;;;;;;;;;3.25;0.75;;;;;7.52;88.89;100430.91;5074503;28;46113;-83
2022/02/21 04:33:29;;;;;;;;;2.50;0.75;;;;;7.59;89.45;100437.44;5074950;28;45669;-85
2022/02/21 04:35:54;;;;;;;;;3.25;0.00;;;;;7.58;88.77;100439.19;5074446;28;46492;-84
2022/02/21 04:38:19;;;;;;;;;1.50;0.00;;;;;7.55;89.27;100439.41;5074575;28;45868;-86
2022/02/21 04:40:47;;;;;;;;;2.75;2.50;;;;;7.44;88.91;100417.53;5075462;28;45602;-84
2022/02/21 04:43:13;;;;;;;;;0.00;0.00;;;;;7.57;89.53;100437.50;5076552;28;45860;-83
2022/02/21 04:45:38;;;;;;;;;0.00;0.00;;;;;7.58;88.60;100440.97;5058055;28;46452;-81
2022/02/21 04:48:04;;;;;;;;;3.00;1.00;;;;;7.56;88.93;100451.47;5075922;28;46774;-81
2022/02/21 04:50:29;;;;;;;;;2.75;1.25;;;;;7.44;88.89;100420.97;5075518;28;45622;-83
2022/02/21 04:52:55;;;;;;;;;3.00;1.00;;;;;7.60;88.83;100423.47;5075046;28;45774;-84
2022/02/21 04:55:21;;;;;;;;;3.00;0.00;;;;;7.61;89.64;100455.59;5075212;28;45735;-83
2022/02/21 04:57:46;;;;;;;;;1.00;0.50;;;;;7.59;88.67;100429.59;5075600;28;45641;-85
2022/02/21 05:03:34;;;;;;;;;1.00;0.00;;;;;7.48;89.35;100448.50;5080025;28;45658;-84
2022/02/21 05:05:59;;;;;;;;;0.25;0.25;;;;;7.32;88.97;100411.28;5082388;28;45587;-85
2022/02/21 05:08:26;;;;;;;;;0.00;0.00;;;;;7.53;89.60;100456.88;5085126;28;45957;-81
2022/02/21 05:10:51;;;;;;;;;1.00;0.25;;;;;7.52;89.61;100451.75;5091757;28;46066;-83
2022/02/21 05:13:18;;;;;;;;;2.00;1.00;;;;;7.30;89.14;100397.50;5094455;28;45819;-81
2022/02/21 05:15:43;;;;;;;;;1.00;0.50;;;;;7.23;89.73;100377.16;5098195;28;45714;-83
2022/02/21 05:18:09;;;;;;;;;1.00;0.00;;;;;7.49;88.88;100428.50;5102300;28;45595;-80
2022/02/21 05:20:34;;;;;;;;;1.75;1.00;;;;;7.32;89.09;100411.28;5095714;28;45341;-83
2022/02/21 05:23:00;;;;;;;;;0.50;0.25;;;;;7.46;89.60;100444.31;5089806;28;45628;-83
2022/02/21 05:25:25;;;;;;;;;3.50;0.00;;;;;7.25;89.24;100407.38;5091102;28;45304;-81
2022/02/21 05:27:50;;;;;;;;;1.00;1.00;;;;;7.38;89.35;100429.16;5084016;28;45549;-82
2022/02/21 05:33:37;;;;;;;;;2.00;0.00;;;;;7.30;89.23;100412.28;5079083;28;45619;-81
2022/02/21 05:36:03;;;;;;;;;1.00;0.25;;;;;7.44;89.03;100465.28;5078148;28;45631;-83
2022/02/21 05:38:29;;;;;;;;;2.00;0.50;;;;;7.46;89.34;100454.75;5077588;28;46248;-85
2022/02/21 05:40:54;;;;;;;;;1.00;0.00;;;;;7.38;89.23;100442.19;5077596;28;45585;-84
2022/02/21 05:43:19;;;;;;;;;1.00;1.00;;;;;7.36;89.22;100435.38;5077200;28;45578;-80
2022/02/21 05:45:45;;;;;;;;;1.25;0.00;;;;;7.42;89.41;100451.50;5077100;28;46414;-82
2022/02/21 05:48:10;;;;;;;;;1.50;0.00;;;;;7.27;89.46;100428.13;5076860;28;45625;-83
2022/02/21 05:50:35;;;;;;;;;0.50;0.50;;;;;7.36;89.66;100441.44;5077305;28;45585;-83
2022/02/21 05:53:01;;;;;;;;;0.75;0.00;;;;;7.35;88.88;100431.94;5077134;28;45655;-82
2022/02/21 05:55:26;;;;;;;;;0.00;0.00;;;;;7.29;88.84;100419.28;5058802;28;46509;-82
2022/02/21 05:57:59;;;;;;;;;1.00;0.00;;;;;7.36;89.74;100443.19;5076605;28;45983;-82
2022/02/21 06:03:45;;;;;;;;;0.00;0.00;;;;;7.28;89.17;100441.06;5076497;28;45610;-82
2022/02/21 06:06:11;;;;;;;;;0.00;0.00;;;;;7.27;89.39;100422.91;5076508;28;45587;-81
2022/02/21 06:08:36;;;;;;;;;0.00;0.00;;;;;7.23;89.35;100448.31;5076329;28;45609;-82
2022/02/21 06:11:02;;;;;;;;;0.00;0.00;;;;;7.24;89.33;100465.59;5076599;28;45394;-83
2022/02/21 06:13:27;;;;;;;;;0.00;0.00;;;;;7.24;89.45;100463.00;5078977;28;45687;-81
2022/02/21 06:19:14;;;;;;;;;0.00;0.00;;;;;7.21;89.25;100478.00;5077475;28;46064;-82
2022/02/21 06:21:40;;;;;;;;;1.00;0.00;;;;;7.15;89.94;100443.56;5077000;28;45514;-84
2022/02/21 06:24:05;;;;;;;;;0.00;0.00;;;;;7.08;89.80;100470.06;5077083;28;45746;-83
2022/02/21 06:26:31;;;;;;;;;0.00;0.00;;;;;7.16;89.27;100483.47;5076915;28;46550;-81
2022/02/21 06:28:56;;;;;;;;;1.00;0.00;;;;;7.19;89.35;100472.88;5076476;28;45729;-81
2022/02/21 06:31:21;;;;;;;;;0.00;0.00;;;;;7.08;89.55;100439.63;5076718;28;46055;-84
2022/02/21 06:33:47;;;;;;;;;0.25;0.00;;;;;7.21;89.64;100476.22;5076620;28;45427;-83
2022/02/21 06:36:12;;;;;;;;;0.00;0.00;;;;;7.22;89.45;100487.50;5076397;28;46865;-83
2022/02/21 06:38:40;;;;;;;;;0.00;0.00;;;;;7.23;89.21;100483.97;5075431;28;46135;-85
2022/02/21 06:41:05;;;;;;;;;0.00;0.00;;;;;7.23;89.44;100482.19;5076265;28;45811;-82
2022/02/21 06:43:31;;;;;;;;;1.50;0.00;;;;;7.20;89.24;100486.72;5076286;28;45744;-81
2022/02/21 06:49:18;;;;;;;;;0.00;0.00;;;;;7.20;89.60;100487.56;5075523;28;46107;-83
2022/02/21 06:51:43;;;;;;;;;0.00;0.00;;;;;7.23;89.28;100494.38;5075640;28;45652;-81
2022/02/21 06:54:08;;;;;;;;;0.00;0.00;;;;;7.14;89.25;100478.34;5077037;28;45757;-88
2022/02/21 06:56:34;;;;;;;;;0.00;0.00;;;;;7.21;89.28;100498.84;5079285;28;45592;-84
2022/02/21 06:59:00;;;;;;;;;0.00;0.00;;;;;7.14;89.24;100496.59;5075438;28;46260;-85
2022/02/21 07:01:26;;;;;;;;;2.00;0.00;;;;;7.24;89.47;100498.63;5075531;28;45761;-80
2022/02/21 07:03:53;;;;;;;;;1.00;0.00;;;;;7.21;89.25;100507.50;5076224;28;46029;-82
2022/02/21 07:06:18;;;;;;;;;0.00;0.00;;;;;7.29;89.58;100507.84;5075836;28;45586;-83
2022/02/21 07:08:44;;;;;;;;;1.50;0.00;;;;;7.18;89.33;100525.88;5075929;28;46157;-81
2022/02/21 07:11:10;;;;;;;;;0.00;0.00;;;;;7.27;89.34;100533.19;5076261;28;45483;-84
2022/02/21 07:13:36;;;;;;;;;2.00;1.00;;;;;7.22;89.40;100519.59;5076374;28;45700;-78
2022/02/21 07:19:23;;;;;;;;;1.00;0.00;;;;;7.25;89.52;100508.97;5075123;28;45659;-81
2022/02/21 07:21:48;;;;;;;;;0.50;0.25;;;;;7.20;89.38;100507.56;5056777;28;45951;-79
2022/02/21 07:24:15;;;;;;;;;2.75;0.25;;;;;7.23;89.45;100516.06;5075325;28;45711;-79
2022/02/21 07:26:41;;;;;;;;;1.00;1.00;;;;;7.23;90.00;100525.66;5075185;28;45581;-81
2022/02/21 07:29:07;;;;;;;;;1.00;1.00;;;;;7.22;89.19;100518.75;5075213;28;46312;-78
2022/02/21 07:31:33;;;;;;;;;0.50;0.00;;;;;7.24;89.19;100532.50;5075610;28;45897;-79
2022/02/21 07:33:59;;;;;;;;;1.75;1.75;;;;;7.21;89.70;100533.53;5056649;28;45592;-81
2022/02/21 07:36:26;;;;;;;;;2.00;0.00;;;;;7.07;89.66;100497.06;5075191;28;45562;-81
2022/02/21 07:38:52;;;;;;;;;1.50;0.00;;;;;7.28;89.57;100549.66;5056180;28;46199;-82
2022/02/21 07:41:17;;;;;;;;;1.75;0.00;;;;;7.24;89.13;100522.09;5075132;28;45673;-83
2022/02/21 07:43:42;;;;;;;;;2.00;1.00;;;;;7.25;89.70;100508.13;5075076;28;45778;-79
2022/02/21 07:49:29;;;;;;;;;1.75;0.25;;;;;7.27;89.40;100511.50;5074431;28;45729;-82
2022/02/21 07:51:55;;;;;;;;;1.75;0.75;;;;;7.27;89.33;100527.13;5074689;28;45709;-80
2022/02/21 07:54:20;;;;;;;;;1.00;0.00;;;;;7.28;89.41;100518.41;5074611;28;45697;-81
2022/02/21 07:56:46;;;;;;;;;1.00;1.00;;;;;7.30;89.76;100530.38;5073729;28;46152;-81
2022/02/21 07:59:11;;;;;;;;;1.75;0.00;;;;;7.31;89.47;100524.25;5056510;28;45729;-78
2022/02/21 08:01:36;;;;;;;;;3.00;1.50;;;;;7.37;89.28;100565.59;5074692;28;45636;-82
2022/02/21 08:04:02;;;;;;;;;2.00;0.75;;;;;7.33;89.36;100518.97;5074583;28;45710;-79
2022/02/21 08:06:27;;;;;;;;;1.50;0.50;;;;;7.42;89.35;100542.72;5074945;28;45580;-82
2022/02/21 08:08:53;;;;;;;;;2.50;1.00;;;;;7.47;89.41;100537.22;5074350;28;46327;-79
2022/02/21 08:11:18;;;;;;;;;2.00;1.25;;;;;7.52;89.06;100543.00;5056258;28;45533;-79
2022/02/21 08:13:44;;;;;;;;;1.75;1.00;;;;;7.52;89.44;100536.00;5074555;28;45559;-81
2022/02/21 08:19:31;;;;;;;;;1.75;0.00;;;;;7.53;89.82;100548.13;5073960;28;46015;-80
2022/02/21 08:21:57;;;;;;;;;2.75;1.25;;;;;7.56;89.58;100544.47;5074391;28;45674;-82
2022/02/21 08:24:22;;;;;;;;;2.25;1.00;;;;;7.55;89.50;100530.63;5074655;28;45624;-81
2022/02/21 08:26:48;;;;;;;;;1.25;0.00;;;;;7.59;89.25;100549.53;5073959;28;47354;-80
2022/02/21 08:29:15;;;;;;;;;2.75;0.00;;;;;7.64;89.17;100526.63;5074142;28;46098;-79
2022/02/21 08:35:03;;;;;;;;;0.25;0.00;;;;;7.74;89.75;100542.53;5073425;28;45714;-80
2022/02/21 08:37:28;;;;;;;;;2.50;0.75;;;;;7.64;88.87;100515.34;5074268;28;48102;-80
2022/02/21 08:39:55;;;;;;;;;6.00;1.00;;;;;7.80;89.45;100537.81;5074004;28;46378;-82
2022/02/21 08:42:20;;;;;;;;;3.00;2.00;;;;;7.58;89.01;100493.09;5074144;28;45894;-80
2022/02/21 08:44:45;;;;;;;;;0.75;0.50;;;;;7.55;88.92;100488.94;5072831;28;45551;-81
2022/02/21 08:47:11;;;;;;;;;2.00;0.75;;;;;7.86;89.35;100536.59;5077050;28;46371;-79
2022/02/21 08:49:37;;;;;;;;;1.00;0.00;;;;;7.96;89.24;100546.38;5077635;28;45823;-78
2022/02/21 08:52:02;;;;;;;;;2.00;1.00;;;;;7.99;88.68;100551.38;5078171;28;45641;-82
2022/02/21 08:54:28;;;;;;;;;2.00;1.00;;;;;7.92;89.51;100542.28;5078224;28;45540;-80
2022/02/21 08:56:54;;;;;;;;;2.50;1.00;;;;;8.06;88.63;100559.69;5078014;28;45640;-81
2022/02/21 08:59:19;;;;;;;;;1.75;1.75;;;;;8.08;89.86;100565.66;5078249;28;46177;-80
2022/02/21 09:05:06;;;;;;;;;0.50;0.25;;;;;7.94;89.84;100553.44;5077751;28;45638;-80
2022/02/21 09:07:32;;;;;;;;;2.00;0.75;;;;;8.07;88.99;100553.53;5076979;28;45563;-79
2022/02/21 09:09:58;;;;;;;;;1.50;0.75;;;;;8.07;88.27;100548.31;5077351;28;46790;-78
2022/02/21 09:12:24;;;;;;;;;1.50;1.50;;;;;8.17;88.43;100569.47;5079022;28;45704;-80
2022/02/21 09:14:51;;;;;;;;;2.75;1.00;;;;;8.22;88.97;100564.78;5079182;28;45845;-78
2022/02/21 09:17:17;;;;;;;;;0.25;0.00;;;;;8.24;88.66;100578.59;5077550;28;45667;-79
2022/02/21 09:19:44;;;;;;;;;1.00;0.75;;;;;8.23;87.80;100551.66;5059005;28;45998;-77
2022/02/21 09:22:11;;;;;;;;;2.00;0.00;;;;;8.38;88.65;100582.03;5077878;28;45474;-79
2022/02/21 09:24:36;;;;;;;;;1.25;0.00;;;;;8.22;89.65;100577.84;5077838;28;45662;-80
2022/02/21 09:27:02;;;;;;;;;2.00;0.00;;;;;8.50;88.91;100559.56;5077416;28;46646;-79
2022/02/21 09:29:27;;;;;;;;;1.00;1.00;;;;;8.49;88.92;100559.66;5077154;28;46037;-80
2022/02/21 09:35:14;;;;;;;;;1.75;0.50;;;;;8.54;88.29;100521.03;5077119;28;45593;-82
2022/02/21 09:37:40;;;;;;;;;2.50;1.50;;;;;8.67;88.46;100541.06;5076765;28;46760;-78
2022/02/21 09:40:11;;;;;;;;;2.75;0.75;;;;;8.60;87.73;100531.09;5076994;28;45935;-81
2022/02/21 09:42:38;;;;;;;;;1.75;1.00;;;;;8.69;87.59;100510.44;5077149;28;45636;-78
2022/02/21 09:45:07;;;;;;;;;2.25;1.25;;;;;8.85;88.40;100539.84;5076798;28;45620;-79
2022/02/21 09:47:34;;;;;;;;;2.00;1.00;;;;;8.90;88.17;100538.72;5076324;28;46360;-80
2022/02/21 09:49:59;;;;;;;;;2.25;1.00;;;;;8.94;87.97;100603.75;5074902;28;46274;-81
2022/02/21 09:52:26;;;;;;;;;2.50;0.50;;;;;8.92;88.54;100534.22;5076539;28;45646;-80
2022/02/21 09:54:52;;;;;;;;;1.25;0.75;;;;;9.05;89.41;100569.91;5075524;28;45914;-80
2022/02/21 09:57:17;;;;;;;;;2.00;1.00;;;;;9.11;87.57;100568.69;5075705;28;46473;-80
2022/02/21 09:59:43;;;;;;;;;0.50;0.50;;;;;9.17;87.72;100568.28;5076484;28;45919;-80
2022/02/21 10:05:30;;;;;;;;;3.50;1.00;;;;;9.18;86.08;100551.63;5076166;28;45629;-82
2022/02/21 10:07:56;;;;;;;;;2.00;1.00;;;;;9.33;87.73;100555.88;5076120;28;46177;-81
2022/02/21 10:10:24;;;;;;;;;0.00;0.00;;;;;9.33;87.00;100581.16;5076687;28;45932;-81
2022/02/21 10:12:55;;;;;;;;;1.75;0.00;;;;;9.36;87.15;100586.19;5076465;28;45518;-81
2022/02/21 10:15:23;;;;;;;;;1.00;1.00;;;;;9.34;86.58;100583.66;5076092;28;45597;-81
2022/02/21 10:17:50;;;;;;;;;0.00;0.00;;;;;9.38;86.88;100615.69;5076047;28;45641;-80
2022/02/21 10:20:18;;;;;;;;;1.00;1.00;;;;;9.46;86.02;100558.47;5075845;28;46281;-80
2022/02/21 10:23:04;;;;;;;;;1.75;0.50;;;;;9.48;87.46;100595.84;5076442;28;45784;-82
2022/02/21 10:25:29;;;;;;;;;3.00;0.00;;;;;9.58;86.58;100561.13;5076323;28;45735;-82
2022/02/21 10:27:58;;;;;;;;;2.50;1.00;;;;;9.64;86.79;100606.94;5075963;28;46563;-80
2022/02/21 10:30:24;;;;;;;;;2.00;1.00;;;;;9.67;86.46;100581.41;5076330;28;45679;-80
2022/02/21 10:32:50;;;;;;;;;1.00;1.00;;;;;9.67;86.12;100612.78;5076405;28;45731;-82
2022/02/21 10:35:26;;;;;;;;;1.75;0.75;;;;;9.79;86.26;100626.84;5057930;28;45620;-80
2022/02/21 10:37:59;;;;;;;;;1.75;1.00;;;;;9.84;85.77;100600.34;5076208;28;46452;-81
2022/02/21 10:40:35;;;;;;;;;1.50;0.00;;;;;9.84;85.81;100582.88;5076204;28;46369;-80
2022/02/21 10:43:10;;;;;;;;;3.00;2.00;;;;;9.95;85.54;100597.84;5058138;28;45631;-79
2022/02/21 10:45:37;;;;;;;;;3.00;1.00;;;;;9.91;87.19;100594.59;5077567;28;45530;-83
2022/02/21 10:48:06;;;;;;;;;2.00;1.00;;;;;10.02;87.33;100602.56;5077182;28;45632;-79
2022/02/21 10:50:35;;;;;;;;;0.00;0.00;;;;;10.06;85.85;100595.31;5077290;28;45583;-80
2022/02/21 10:53:08;;;;;;;;;2.00;1.00;;;;;10.02;86.44;100646.22;5077017;28;45613;-82
2022/02/21 10:55:35;;;;;;;;;4.50;1.00;;;;;10.09;85.30;100572.38;5077369;28;45687;-78
2022/02/21 10:58:16;;;;;;;;;1.00;0.75;;;;;10.18;85.10;100557.03;5077245;28;45531;-82
2022/02/21 11:00:42;;;;;;;;;1.50;0.75;;;;;10.22;85.07;100590.72;5078191;28;46183;-80
2022/02/21 11:03:08;;;;;;;;;1.75;1.00;;;;;10.14;85.80;100603.50;5079825;28;45631;-83
2022/02/21 11:05:37;;;;;;;;;1.75;0.75;;;;;10.23;84.89;100557.53;5076422;28;45517;-82
2022/02/21 11:08:02;;;;;;;;;8.00;1.00;;;;;10.46;85.67;100604.72;5075773;28;47012;-84
2022/02/21 11:10:28;;;;;;;;;2.00;2.00;;;;;10.54;84.59;100598.94;5079989;28;47254;-82
2022/02/21 11:12:55;;;;;;;;;3.00;1.00;;;;;10.46;84.66;100554.97;5077354;28;45718;-79
2022/02/21 11:15:23;;;;;;;;;2.25;1.25;;;;;10.66;83.16;100573.66;5076408;28;45748;-83
2022/02/21 11:21:24;;;;;;;;;2.75;1.00;;;;;10.48;85.06;100629.00;5077258;28;45941;-81
2022/02/21 11:23:50;;;;;;;;;2.75;2.00;;;;;10.80;85.47;100654.72;5080428;28;45506;-80
2022/02/21 11:26:30;;;;;;;;;2.75;1.00;;;;;10.67;84.80;100631.19;5080155;28;45483;-80
2022/02/21 11:29:05;;;;;;;;;5.50;2.50;;;;;10.59;81.98;100543.59;5074923;28;45658;-78
2022/02/21 11:31:38;;;;;;;;;4.00;1.50;;;;;10.81;84.80;100631.03;5075130;28;46384;-78
2022/02/21 11:34:05;;;;;;;;;1.00;0.50;;;;;10.83;85.64;100592.47;5075076;28;45624;-78
2022/02/21 11:36:33;;;;;;;;;2.00;1.00;;;;;10.84;81.54;100627.38;5074614;28;45829;-80
2022/02/21 11:38:59;;;;;;;;;2.50;1.00;;;;;10.84;84.93;100627.38;5074926;28;46265;-82
2022/02/21 11:41:34;;;;;;;;;4.00;2.50;;;;;10.81;83.50;100659.00;5074956;28;46284;-81
2022/02/21 11:44:19;;;;;;;;;2.50;1.00;;;;;10.81;85.78;100674.75;5075479;28;45539;-81
2022/02/21 11:46:44;;;;;;;;;4.00;1.75;;;;;10.82;85.08;100668.56;5075693;28;45612;-80
2022/02/21 11:49:25;;;;;;;;;3.25;2.25;;;;;10.81;83.72;100672.97;5076464;28;45837;-80
2022/02/21 11:51:50;;;;;;;;;3.00;1.00;;;;;10.86;84.33;100663.00;5076452;28;45962;-82
2022/02/21 11:54:16;;;;;;;;;2.00;1.00;;;;;10.83;85.35;100644.03;5077082;28;45598;-82
2022/02/21 11:56:47;;;;;;;;;3.50;1.75;;;;;10.80;83.84;100639.00;5079031;28;45815;-82
2022/02/21 11:59:22;;;;;;;;;3.25;2.25;;;;;10.78;84.52;100667.09;5087508;28;45655;-80
2022/02/21 12:02:02;;;;;;;;;3.25;2.00;;;;;10.75;83.74;100647.19;5087924;28;45340;-82
2022/02/21 12:04:28;;;;;;;;;2.00;1.00;;;;;10.70;nan;100648.47;5088529;28;45829;-78
2022/02/21 12:06:59;;;;;;;;;2.50;1.00;;;;;10.48;86.19;100683.19;5091692;28;45507;-78
2022/02/21 12:09:27;;;;;;;;;7.00;2.00;;;;;10.40;84.87;100709.09;5093791;28;47069;-77
2022/02/21 12:12:28;;;;;;;;;6.50;2.00;;;;;10.29;87.00;100683.63;5097983;28;45345;-81
2022/02/21 12:15:23;;;;;;;;;5.25;1.00;;;;;10.11;87.38;100685.69;5083888;28;45748;-80
2022/02/21 12:18:00;;;;;;;;;8.50;2.25;;;;;9.97;87.34;100688.41;5071466;28;45879;-82
2022/02/21 12:20:31;;;;;;;;;3.00;2.00;;;;;9.90;87.09;100715.06;5075412;28;46507;-81
2022/02/21 12:23:12;;;;;;;;;5.75;2.00;;;;;9.86;87.15;100693.53;5078393;28;45495;-80
2022/02/21 12:25:41;;;;;;;;;1.25;0.75;;;;;9.86;88.12;100685.66;5078365;28;45650;-79
2022/02/21 12:28:19;;;;;;;;;1.50;1.25;;;;;9.86;88.14;100718.84;5078377;28;45725;-81
2022/02/21 12:30:47;;;;;;;;;0.00;0.00;;;;;9.79;86.87;100707.94;5082971;28;45884;-81
2022/02/21 12:33:25;;;;;;;;;1.00;1.00;;;;;9.81;87.82;100695.59;5081224;28;47338;-80
2022/02/21 12:35:53;;;;;;;;;3.75;3.00;;;;;9.79;87.97;100692.25;5081007;28;45750;-81
2022/02/21 12:38:21;;;;;;;;;0.50;0.00;;;;;9.76;88.94;100678.53;5082194;28;45613;-79
2022/02/21 12:40:59;;;;;;;;;3.75;0.25;;;;;9.72;87.93;100724.16;5079627;28;46682;-82
2022/02/21 12:43:42;;;;;;;;;3.75;1.75;;;;;9.72;86.94;100713.69;5078961;28;46123;-81
2022/02/21 12:46:07;;;;;;;;;8.00;1.50;;;;;9.61;87.28;100675.13;5078384;28;45637;-82
2022/02/21 12:48:36;;;;;;;;;2.50;2.00;;;;;9.73;87.75;100682.19;5078450;28;45444;-82